createdAt,value
2023-02-17T00:01:34.287Z,44.90
2023-02-17T00:04:02.889Z,48.80
2023-02-17T00:06:32.417Z,51.00
2023-02-17T00:09:01.991Z,48.50
2023-02-17T00:11:30.770Z,51.60
2023-02-17T00:14:00.558Z,53.50
2023-02-17T00:16:29.515Z,57.60
2023-02-17T00:19:02.258Z,49.50
2023-02-17T00:21:31.852Z,45.60
2023-02-17T00:24:00.505Z,50.30
2023-02-17T00:26:29.235Z,53.20
2023-02-17T00:28:59.278Z,49.30
2023-02-17T00:31:27.654Z,47.80
2023-02-17T00:33:56.649Z,54.60
2023-02-17T00:36:26.238Z,50.60
2023-02-17T00:38:56.970Z,55.50
2023-02-17T00:41:29.094Z,53.70
2023-02-17T00:43:59.662Z,51.90
2023-02-17T00:46:28.096Z,46.90
2023-02-17T00:48:56.133Z,52.90
2023-02-17T00:51:25.514Z,49.20
2023-02-17T00:53:53.377Z,52.70
2023-02-17T00:56:21.382Z,49.70
2023-02-17T00:58:49.277Z,50.40
2023-02-17T01:01:18.134Z,50.30
2023-02-17T01:03:46.380Z,48.20
2023-02-17T01:06:24.329Z,52.30
2023-02-17T01:08:53.397Z,52.80
2023-02-17T01:11:28.186Z,54.10
2023-02-17T01:16:30.842Z,49.60
2023-02-17T01:19:00.789Z,50.80
2023-02-17T01:21:30.233Z,45.40
2023-02-17T01:24:00.550Z,41.50
2023-02-17T01:26:31.598Z,44.40
2023-02-17T01:29:04.122Z,43.60
2023-02-17T01:31:32.686Z,44.20
2023-02-17T01:34:03.939Z,42.90
2023-02-17T01:36:32.769Z,40.80
2023-02-17T01:39:01.151Z,41.60
2023-02-17T01:41:29.750Z,43.10
2023-02-17T01:44:16.746Z,43.60
2023-02-17T01:46:47.989Z,46.20
2023-02-17T01:49:38.011Z,45.80
2023-02-17T01:52:21.274Z,45.50
2023-02-17T01:54:55.334Z,41.10
2023-02-17T01:57:27.400Z,44.10
2023-02-17T01:59:56.154Z,43.20
2023-02-17T02:02:24.370Z,45.00
2023-02-17T02:04:54.734Z,45.80
2023-02-17T02:07:33.289Z,46.30
2023-02-17T02:10:03.010Z,43.10
2023-02-17T02:12:35.457Z,44.60
2023-02-17T02:15:09.383Z,42.20
2023-02-17T02:18:16.166Z,44.50
2023-02-17T02:21:07.908Z,44.20
2023-02-17T02:24:04.860Z,42.10
2023-02-17T02:27:00.117Z,43.70
2023-02-17T02:29:57.731Z,48.50
2023-02-17T02:32:49.690Z,42.60
2023-02-17T02:35:26.848Z,54.40
2023-02-17T02:38:09.632Z,56.10
2023-02-17T02:40:44.684Z,51.00
2023-02-17T02:43:14.846Z,47.20
2023-02-17T02:45:43.154Z,48.70
2023-02-17T02:48:11.238Z,47.80
2023-02-17T02:50:59.033Z,46.20
2023-02-17T02:54:07.703Z,46.90
2023-02-17T02:56:58.126Z,46.60
2023-02-17T02:59:35.202Z,43.90
2023-02-17T03:02:17.644Z,44.90
2023-02-17T03:04:59.477Z,46.50
2023-02-17T03:07:55.650Z,47.60
2023-02-17T03:23:43.985Z,48.00
2023-02-17T03:26:12.028Z,53.50
2023-02-17T03:28:40.972Z,47.20
2023-02-17T03:31:09.000Z,48.90
2023-02-17T03:33:36.980Z,46.10
2023-02-17T03:36:05.413Z,48.20
2023-02-17T03:38:33.470Z,47.10
2023-02-17T03:41:01.321Z,45.10
2023-02-17T03:43:29.161Z,49.50
2023-02-17T03:45:57.066Z,48.70
2023-02-17T03:48:24.929Z,52.70
2023-02-17T03:50:52.774Z,51.90
2023-02-17T03:53:20.801Z,45.60
2023-02-17T03:55:48.592Z,48.70
2023-02-17T03:58:16.798Z,46.90
2023-02-17T04:00:44.600Z,48.60
2023-02-17T04:03:12.441Z,47.40
2023-02-17T04:05:40.247Z,49.90
2023-02-17T04:08:08.414Z,47.70
2023-02-17T04:10:36.223Z,45.80
2023-02-17T04:13:04.127Z,50.80
2023-02-17T04:15:32.518Z,49.90
2023-02-17T04:18:00.323Z,46.30
2023-02-17T04:20:28.340Z,51.20
2023-02-17T04:22:56.291Z,45.10
2023-02-17T04:25:24.339Z,48.00
2023-02-17T04:27:52.128Z,50.40
2023-02-17T04:30:22.171Z,45.60
2023-02-17T04:37:22.061Z,46.50
2023-02-17T04:39:49.888Z,43.30
2023-02-17T04:42:17.982Z,47.10
2023-02-17T04:44:45.896Z,46.50
2023-02-17T04:47:13.781Z,47.40
2023-02-17T04:49:41.721Z,47.90
2023-02-17T04:52:09.592Z,51.10
2023-02-17T04:54:37.702Z,47.00
2023-02-17T04:57:05.631Z,48.30
2023-02-17T04:59:33.588Z,44.80
2023-02-17T05:02:01.401Z,48.70
2023-02-17T05:04:29.591Z,46.10
2023-02-17T05:06:57.360Z,49.00
2023-02-17T05:09:25.437Z,46.50
2023-02-17T05:11:53.325Z,42.40
2023-02-17T05:14:21.336Z,47.80
2023-02-17T05:16:49.213Z,45.10
2023-02-17T05:19:17.109Z,49.50
2023-02-17T05:21:45.008Z,47.20
2023-02-17T05:24:13.031Z,47.30
2023-02-17T05:26:40.990Z,49.80
2023-02-17T05:29:08.897Z,52.20
2023-02-17T05:31:37.152Z,50.00
2023-02-17T05:34:05.143Z,46.60
2023-02-17T05:36:32.928Z,53.60
2023-02-17T05:39:00.829Z,52.40
2023-02-17T05:41:28.806Z,50.20
2023-02-17T05:43:56.731Z,49.00
2023-02-17T05:46:24.553Z,49.90
2023-02-17T05:48:52.378Z,48.70
2023-02-17T05:51:20.243Z,48.00
2023-02-17T05:58:21.690Z,45.50
2023-02-17T06:00:49.729Z,45.60
2023-02-17T06:03:17.641Z,46.70
2023-02-17T06:05:45.976Z,42.50
2023-02-17T06:12:48.247Z,47.60
2023-02-17T06:15:16.208Z,49.40
2023-02-17T06:22:19.528Z,49.10
2023-02-17T06:24:47.455Z,49.10
2023-02-17T06:27:15.354Z,52.70
2023-02-17T06:29:44.705Z,50.70
2023-02-17T06:32:12.606Z,49.20
2023-02-17T06:34:40.370Z,48.50
2023-02-17T06:37:08.243Z,50.50
2023-02-17T06:39:36.025Z,45.10
2023-02-17T06:42:04.099Z,50.90
2023-02-17T06:44:31.894Z,50.80
2023-02-17T06:46:59.903Z,51.60
2023-02-17T06:49:27.889Z,50.10
2023-02-17T06:51:55.712Z,48.00
2023-02-17T06:54:23.533Z,49.50
2023-02-17T06:56:51.379Z,51.20
2023-02-17T06:59:19.190Z,53.80
2023-02-17T07:01:49.468Z,50.10
2023-02-17T07:04:17.710Z,48.40
2023-02-17T07:06:45.566Z,47.40
2023-02-17T07:09:14.011Z,46.80
2023-02-17T07:11:42.832Z,48.00
2023-02-17T07:14:11.029Z,49.00
2023-02-17T07:16:39.626Z,45.30
2023-02-17T07:19:07.526Z,44.10
2023-02-17T07:21:36.125Z,46.20
2023-02-17T07:24:04.112Z,48.60
2023-02-17T07:26:32.027Z,45.50
2023-02-17T07:29:01.251Z,45.10
2023-02-17T07:31:29.218Z,45.00
2023-02-17T07:33:57.482Z,43.00
2023-02-17T07:36:25.332Z,46.80
2023-02-17T07:38:53.262Z,45.50
2023-02-17T07:41:24.712Z,43.50
2023-02-17T07:43:57.377Z,45.20
2023-02-17T07:46:26.636Z,45.80
2023-02-17T07:48:57.866Z,45.20
2023-02-17T07:51:26.877Z,42.20
2023-02-17T07:53:55.075Z,41.00
2023-02-17T07:56:23.544Z,39.50
2023-02-17T07:58:51.870Z,42.80
2023-02-17T08:01:25.393Z,46.50
2023-02-17T08:03:53.728Z,43.30
2023-02-17T08:06:24.041Z,47.70
2023-02-17T08:09:11.773Z,41.60
2023-02-17T08:11:59.341Z,41.10
2023-02-17T08:14:29.884Z,44.00
2023-02-17T08:16:59.913Z,43.10
2023-02-17T08:19:39.487Z,45.10
2023-02-17T08:24:45.194Z,42.50
2023-02-17T08:27:15.294Z,38.70
2023-02-17T08:29:44.915Z,41.30
2023-02-17T08:32:14.858Z,37.30
2023-02-17T08:34:43.422Z,44.50
2023-02-17T08:37:11.645Z,42.70
2023-02-17T08:39:39.942Z,43.00
2023-02-17T08:42:07.934Z,38.20
2023-02-17T08:44:37.952Z,36.80
2023-02-17T08:47:10.957Z,37.50
2023-02-17T08:49:43.031Z,43.60
2023-02-17T08:52:13.003Z,37.90
2023-02-17T08:54:43.950Z,36.30
2023-02-17T08:57:15.961Z,36.70
2023-02-17T08:59:51.033Z,39.00
2023-02-17T09:02:22.984Z,35.30
2023-02-17T09:04:55.015Z,37.70
2023-02-17T09:07:26.467Z,36.10
2023-02-17T09:09:58.975Z,37.80
2023-02-17T09:12:30.980Z,37.60
2023-02-17T09:15:02.018Z,37.90
2023-02-17T09:17:34.068Z,37.70
2023-02-17T09:20:11.216Z,34.30
2023-02-17T09:22:46.988Z,35.10
2023-02-17T09:25:19.049Z,34.60
2023-02-17T09:27:51.021Z,35.40
2023-02-17T09:30:22.094Z,33.70
2023-02-17T09:32:54.004Z,37.30
2023-02-17T09:35:27.013Z,37.80
2023-02-17T09:37:58.008Z,36.40
2023-02-17T09:41:05.391Z,39.20
2023-02-17T09:43:35.513Z,37.70
2023-02-17T09:52:31.992Z,36.70
2023-02-17T09:55:06.165Z,36.10
2023-02-17T09:57:39.630Z,35.30
2023-02-17T10:00:14.509Z,36.70
2023-02-17T10:02:55.106Z,37.40
2023-02-17T10:05:28.154Z,38.20
2023-02-17T10:08:13.048Z,36.50
2023-02-17T10:10:56.923Z,39.00
2023-02-17T10:13:27.722Z,37.80
2023-02-17T10:16:03.345Z,41.60
2023-02-17T10:18:39.804Z,39.90
2023-02-17T10:21:13.317Z,38.70
2023-02-17T10:23:41.425Z,38.60
2023-02-17T10:26:35.081Z,37.20
2023-02-17T10:29:14.650Z,38.20
2023-02-17T10:31:46.931Z,34.70
2023-02-17T10:34:37.282Z,36.20
2023-02-17T10:37:15.122Z,36.40
2023-02-17T10:39:52.448Z,35.30
2023-02-17T10:42:30.264Z,34.80
2023-02-17T10:45:18.905Z,33.60
2023-02-17T10:47:47.448Z,39.00
2023-02-17T10:50:22.474Z,35.30
2023-02-17T10:52:53.462Z,38.50
2023-02-17T10:55:25.796Z,38.60
2023-02-17T10:58:20.420Z,35.70
2023-02-17T11:00:53.881Z,35.80
2023-02-17T11:03:24.741Z,34.30
2023-02-17T11:06:01.901Z,39.00
2023-02-17T11:08:56.945Z,36.70
2023-02-17T11:11:30.712Z,34.10
2023-02-17T11:14:20.838Z,32.60
2023-02-17T11:16:59.345Z,35.10
2023-02-17T11:19:27.632Z,36.40
2023-02-17T11:21:58.795Z,34.00
2023-02-17T11:24:28.362Z,33.90
2023-02-17T11:27:00.810Z,36.10
2023-02-17T11:29:30.188Z,35.30
2023-02-17T11:32:11.238Z,36.10
2023-02-17T11:34:42.230Z,38.10
2023-02-17T11:37:13.314Z,38.30
2023-02-17T11:39:44.169Z,37.80
2023-02-17T11:42:17.164Z,39.30
2023-02-17T11:44:45.926Z,37.70
2023-02-17T11:47:32.604Z,38.60
2023-02-17T11:50:38.904Z,37.00
2023-02-17T11:53:08.310Z,40.40
2023-02-17T11:55:59.665Z,36.50
2023-02-17T11:58:59.918Z,35.60
2023-02-17T12:01:52.386Z,37.90
2023-02-17T12:04:39.095Z,42.40
2023-02-17T12:07:20.540Z,40.00
2023-02-17T12:10:12.202Z,38.80
2023-02-17T12:13:01.584Z,37.70
2023-02-17T12:15:44.820Z,35.40
2023-02-17T12:18:34.783Z,33.50
2023-02-17T12:21:48.774Z,35.10
2023-02-17T12:24:48.553Z,32.60
2023-02-17T12:27:51.641Z,32.90
2023-02-17T12:30:50.792Z,30.80
2023-02-17T12:33:43.180Z,32.20
2023-02-17T12:36:14.748Z,32.00
2023-02-17T12:38:53.403Z,32.50
2023-02-17T12:41:29.609Z,28.00
2023-02-17T12:44:02.793Z,31.20
2023-02-17T12:46:44.298Z,29.70
2023-02-17T12:49:37.545Z,29.60
2023-02-17T12:52:19.749Z,30.10
2023-02-17T12:55:20.930Z,27.40
2023-02-17T12:57:56.015Z,29.30
2023-02-17T13:00:30.465Z,27.50
2023-02-17T13:02:59.752Z,26.80
2023-02-17T13:05:40.113Z,27.30
2023-02-17T13:08:22.644Z,26.10
2023-02-17T13:11:02.030Z,25.30
2023-02-17T13:13:32.763Z,26.00
2023-02-17T13:16:13.398Z,29.20
2023-02-17T13:18:43.918Z,27.70
2023-02-17T13:21:31.896Z,24.10
2023-02-17T13:24:13.015Z,29.30
2023-02-17T13:26:43.076Z,25.20
2023-02-17T13:29:32.334Z,21.30
2023-02-17T13:32:05.213Z,24.20
2023-02-17T13:34:42.507Z,27.50
2023-02-17T13:37:34.062Z,23.60
2023-02-17T13:40:29.801Z,25.40
2023-02-17T13:42:59.551Z,26.10
2023-02-17T13:45:29.971Z,22.90
2023-02-17T13:48:01.171Z,25.50
2023-02-17T13:50:39.581Z,24.80
2023-02-17T13:53:27.788Z,24.00
2023-02-17T13:56:02.065Z,23.70
2023-02-17T13:58:40.056Z,22.90
2023-02-17T14:01:20.843Z,23.60
2023-02-17T14:03:52.362Z,22.00
2023-02-17T14:06:41.073Z,26.20
2023-02-17T14:09:33.215Z,24.00
2023-02-17T14:12:04.467Z,24.20
2023-02-17T14:14:36.153Z,24.60
2023-02-17T14:17:09.357Z,22.90
2023-02-17T14:19:46.241Z,26.50
2023-02-17T14:22:31.100Z,21.00
2023-02-17T14:25:20.885Z,24.80
2023-02-17T14:27:51.114Z,23.30
2023-02-17T14:30:34.005Z,25.70
2023-02-17T14:33:08.906Z,23.70
2023-02-17T14:35:39.592Z,23.40
2023-02-17T14:38:10.505Z,25.00
2023-02-17T14:40:40.173Z,26.90
2023-02-17T14:43:08.207Z,24.50
2023-02-17T14:45:36.156Z,25.20
2023-02-17T14:48:04.445Z,24.50
2023-02-17T14:50:34.706Z,28.60
2023-02-17T14:53:02.542Z,25.20
2023-02-17T14:55:39.009Z,27.20
2023-02-17T14:58:06.910Z,23.90
2023-02-17T15:00:35.146Z,23.50
2023-02-17T15:03:03.064Z,20.90
2023-02-17T15:05:32.015Z,25.40
2023-02-17T15:08:01.602Z,29.70
2023-02-17T15:10:29.895Z,28.00
2023-02-17T15:12:58.170Z,25.50
2023-02-17T15:15:26.058Z,29.30
2023-02-17T15:17:53.903Z,26.60
2023-02-17T15:20:21.869Z,28.50
2023-02-17T15:22:52.986Z,26.20
2023-02-17T15:25:24.468Z,26.70
2023-02-17T15:27:52.680Z,27.00
2023-02-17T15:30:21.587Z,29.90
2023-02-17T15:32:49.601Z,28.20
2023-02-17T15:35:23.699Z,26.40
2023-02-17T15:37:52.215Z,28.10
2023-02-17T15:40:24.965Z,24.00
2023-02-17T15:43:01.516Z,26.50
2023-02-17T15:45:30.962Z,25.50
2023-02-17T15:48:07.917Z,25.10
2023-02-17T15:50:35.884Z,24.90
2023-02-17T15:53:03.768Z,24.20
2023-02-17T15:55:33.995Z,24.40
2023-02-17T15:58:05.421Z,22.50
2023-02-17T16:00:35.528Z,23.30
2023-02-17T16:03:03.753Z,28.30
2023-02-17T16:05:33.729Z,22.50
2023-02-17T16:08:01.534Z,23.90
2023-02-17T16:10:30.483Z,22.90
2023-02-17T16:13:01.216Z,23.20
2023-02-17T16:15:32.105Z,24.30
2023-02-17T16:18:00.234Z,20.80
2023-02-17T16:20:34.662Z,21.80
2023-02-17T16:23:03.623Z,22.30
2023-02-17T16:25:31.537Z,23.70
2023-02-17T16:28:00.132Z,20.00
2023-02-17T16:30:34.714Z,19.80
2023-02-17T16:33:03.611Z,18.10
2023-02-17T16:35:33.241Z,20.30
2023-02-17T16:38:22.749Z,19.40
2023-02-17T16:40:52.677Z,18.00
2023-02-17T16:43:23.916Z,17.60
2023-02-17T16:45:56.986Z,19.50
2023-02-17T16:48:27.860Z,17.30
2023-02-17T16:50:56.429Z,16.10
2023-02-17T16:53:24.847Z,16.30
2023-02-17T16:55:55.297Z,18.50
2023-02-17T16:58:27.740Z,17.10
2023-02-17T17:07:37.192Z,17.90
2023-02-17T17:10:17.605Z,18.70
2023-02-17T17:12:47.252Z,15.00
2023-02-17T17:15:17.669Z,16.70
2023-02-17T17:17:52.989Z,14.80
2023-02-17T17:20:32.065Z,16.00
2023-02-17T17:23:02.056Z,14.40
2023-02-17T17:25:32.128Z,14.80
2023-02-17T17:28:00.054Z,14.80
2023-02-17T17:30:35.659Z,14.00
2023-02-17T17:33:03.925Z,14.20
2023-02-17T17:35:32.503Z,12.20
2023-02-17T17:38:00.458Z,11.60
2023-02-17T17:40:48.444Z,12.20
2023-02-17T17:43:21.950Z,12.90
2023-02-17T17:45:51.313Z,14.50
2023-02-17T17:48:19.487Z,13.00
2023-02-17T17:50:49.607Z,12.70
2023-02-17T17:53:17.501Z,13.20
2023-02-17T17:55:47.817Z,11.90
2023-02-17T17:58:17.410Z,11.40
2023-02-17T18:00:45.630Z,11.50
2023-02-17T18:03:13.735Z,11.50
2023-02-17T18:05:58.598Z,12.00
2023-02-17T18:08:27.776Z,10.70
2023-02-17T18:10:55.870Z,9.90
2023-02-17T18:13:25.067Z,10.60
2023-02-17T18:15:53.833Z,9.30
2023-02-17T18:18:22.746Z,11.40
2023-02-17T18:20:51.331Z,9.80
2023-02-17T18:23:19.215Z,12.40
2023-02-17T18:25:47.268Z,10.50
2023-02-17T18:28:15.244Z,9.90
2023-02-17T18:30:43.546Z,9.80
2023-02-17T18:33:11.528Z,10.90
2023-02-17T18:35:40.267Z,11.00
2023-02-17T18:38:08.160Z,10.10
2023-02-17T18:40:39.640Z,12.00
2023-02-17T18:43:09.185Z,11.30
2023-02-17T18:45:37.000Z,10.80
2023-02-17T18:48:04.934Z,10.00
2023-02-17T18:50:33.127Z,10.00
2023-02-17T18:53:03.620Z,9.60
2023-02-17T18:55:33.035Z,9.60
2023-02-17T18:58:00.891Z,11.30
2023-02-17T19:00:29.049Z,10.80
2023-02-17T19:02:56.962Z,9.90
2023-02-17T19:05:28.775Z,9.40
2023-02-17T19:07:56.586Z,11.90
2023-02-17T19:10:24.450Z,10.00
2023-02-17T19:12:52.307Z,10.40
2023-02-17T19:15:21.129Z,8.50
2023-02-17T19:17:49.065Z,7.80
2023-02-17T19:20:17.231Z,8.80
2023-02-17T19:22:45.385Z,8.80
2023-02-17T19:25:13.245Z,9.00
2023-02-17T19:27:42.129Z,10.00
2023-02-17T19:30:11.381Z,8.70
2023-02-17T19:32:39.519Z,8.70
2023-02-17T19:35:09.989Z,11.30
2023-02-17T19:37:39.337Z,9.70
2023-02-17T19:40:07.917Z,9.00
2023-02-17T19:42:36.594Z,9.90
2023-02-17T19:45:04.993Z,10.20
2023-02-17T19:47:32.993Z,9.00
2023-02-17T19:50:00.881Z,8.70
2023-02-17T19:52:28.817Z,9.90
2023-02-17T19:54:56.845Z,8.10
2023-02-17T19:57:24.850Z,9.10
2023-02-17T19:59:52.799Z,10.20
2023-02-17T20:02:20.733Z,9.90
2023-02-17T20:04:48.656Z,10.50
2023-02-17T20:07:16.500Z,10.70
2023-02-17T20:09:44.322Z,9.10
2023-02-17T20:12:12.169Z,8.80
2023-02-17T20:14:39.994Z,8.30
2023-02-17T20:17:08.518Z,9.90
2023-02-17T20:19:38.552Z,8.90
2023-02-17T20:22:08.088Z,9.90
2023-02-17T20:24:37.556Z,9.90
2023-02-17T20:27:05.470Z,10.90
2023-02-17T20:29:35.592Z,10.50
2023-02-17T20:32:03.681Z,10.60
2023-02-17T20:34:39.381Z,12.50
2023-02-17T20:37:08.995Z,12.80
2023-02-17T20:39:38.833Z,10.40
2023-02-17T20:42:07.022Z,11.70
2023-02-17T20:44:35.554Z,11.90
2023-02-17T20:47:03.874Z,12.30
2023-02-17T20:49:31.635Z,13.60
2023-02-17T20:51:59.517Z,12.70
2023-02-17T20:54:27.468Z,12.70
2023-02-17T20:56:57.845Z,12.20
2023-02-17T20:59:26.005Z,11.30
2023-02-17T21:01:53.924Z,11.70
2023-02-17T21:04:21.777Z,10.00
2023-02-17T21:06:50.868Z,10.70
2023-02-17T21:09:19.479Z,10.60
2023-02-17T21:11:47.969Z,11.20
2023-02-17T21:14:16.359Z,9.90
2023-02-17T21:16:44.987Z,10.60
2023-02-17T21:19:13.140Z,9.80
2023-02-17T21:21:41.143Z,9.50
2023-02-17T21:24:09.356Z,9.20
2023-02-17T21:26:37.308Z,9.70
2023-02-17T21:29:05.540Z,10.20
2023-02-17T21:31:33.925Z,10.30
2023-02-17T21:34:02.021Z,10.60
2023-02-17T21:36:30.332Z,9.30
2023-02-17T21:38:59.207Z,8.90
2023-02-17T21:41:27.784Z,11.60
2023-02-17T21:44:14.570Z,10.20
2023-02-17T21:46:43.451Z,9.40
2023-02-17T21:49:12.694Z,8.80
2023-02-17T21:51:41.396Z,10.80
2023-02-17T21:54:10.626Z,12.90
2023-02-17T21:56:38.521Z,11.20
2023-02-17T21:59:06.881Z,8.70
2023-02-17T22:01:35.202Z,5.80
2023-02-17T22:04:03.429Z,3.80
2023-02-17T22:06:36.505Z,3.60
2023-02-17T22:09:06.996Z,4.50
2023-02-17T22:11:38.721Z,3.10
2023-02-17T22:14:14.712Z,4.20
2023-02-17T22:16:44.114Z,3.40
2023-02-17T22:19:15.858Z,3.40
2023-02-17T22:21:44.714Z,4.50
2023-02-17T22:24:13.669Z,2.00
2023-02-17T22:26:42.726Z,3.20
2023-02-17T22:29:10.566Z,3.30
2023-02-17T22:31:38.462Z,3.50
2023-02-17T22:34:10.030Z,4.30
2023-02-17T22:36:38.596Z,7.00
2023-02-17T22:39:08.486Z,3.90
2023-02-17T22:41:36.563Z,3.60
2023-02-17T22:44:04.594Z,4.40
2023-02-17T22:46:33.649Z,2.90
2023-02-17T22:49:01.611Z,5.50
2023-02-17T22:51:40.080Z,4.40
2023-02-17T22:54:09.248Z,4.40
2023-02-17T22:56:37.391Z,4.20
2023-02-17T22:59:06.118Z,3.60
2023-02-17T23:01:36.472Z,3.40
2023-02-17T23:04:05.473Z,2.70
2023-02-17T23:06:36.297Z,3.60
2023-02-17T23:09:05.979Z,2.70
2023-02-17T23:11:55.092Z,2.10
2023-02-17T23:14:34.514Z,3.00
2023-02-17T23:17:09.473Z,3.50
2023-02-17T23:19:38.712Z,3.90
2023-02-17T23:22:10.513Z,4.40
2023-02-17T23:24:38.307Z,5.30
2023-02-17T23:34:44.119Z,3.90
2023-02-17T23:37:11.925Z,5.20
2023-02-17T23:39:39.961Z,4.30
2023-02-17T23:42:07.769Z,4.10
2023-02-17T23:44:35.692Z,6.20
2023-02-17T23:47:04.455Z,3.30
2023-02-17T23:49:32.275Z,3.50
2023-02-17T23:52:00.606Z,3.70
2023-02-17T23:54:28.874Z,6.60
2023-02-17T23:56:56.752Z,6.00
2023-02-17T23:59:24.488Z,4.00
